createdAt,value
2018-02-09T00:01:46.409Z,6.20
2018-02-09T00:04:23.298Z,23.00
2018-02-09T00:06:52.897Z,6.87
2018-02-09T00:09:22.359Z,20.40
2018-02-09T00:11:51.895Z,10.90
2018-02-09T00:14:21.422Z,7.97
2018-02-09T00:16:50.962Z,16.73
2018-02-09T00:19:20.821Z,24.93
2018-02-09T00:21:50.344Z,15.93
2018-02-09T00:24:19.865Z,34.63
2018-02-09T00:26:50.262Z,23.90
2018-02-09T00:29:19.802Z,21.17
2018-02-09T00:31:49.354Z,19.60
2018-02-09T00:34:18.828Z,44.57
2018-02-09T00:36:49.448Z,43.13
2018-02-09T00:39:18.971Z,42.77
2018-02-09T00:41:48.482Z,56.13
2018-02-09T00:44:22.569Z,67.17
2018-02-09T00:47:01.168Z,93.27
2018-02-09T00:49:30.679Z,73.70
2018-02-09T00:52:00.200Z,38.07
2018-02-09T00:54:33.327Z,30.93
2018-02-09T00:57:02.858Z,23.40
2018-02-09T00:59:32.404Z,19.53
2018-02-09T01:02:01.942Z,14.87
2018-02-09T01:04:31.474Z,12.47
2018-02-09T01:07:07.050Z,42.23
2018-02-09T01:09:36.583Z,59.17
2018-02-09T01:12:06.075Z,42.97
2018-02-09T01:14:35.820Z,54.93
2018-02-09T01:17:05.307Z,37.37
2018-02-09T01:19:41.219Z,44.67
2018-02-09T01:22:10.727Z,46.60
2018-02-09T01:24:40.276Z,45.63
2018-02-09T01:27:09.798Z,25.33
2018-02-09T01:29:39.331Z,20.60
2018-02-09T01:32:08.817Z,17.87
2018-02-09T01:34:38.374Z,20.13
2018-02-09T01:37:07.898Z,13.37
2018-02-09T01:39:38.253Z,21.00
2018-02-09T01:42:10.753Z,39.30
2018-02-09T01:44:40.265Z,88.40
2018-02-09T01:47:12.996Z,66.60
2018-02-09T01:49:42.501Z,66.20
2018-02-09T01:52:18.326Z,46.60
2018-02-09T01:54:47.865Z,70.40
2018-02-09T01:57:23.416Z,48.33
2018-02-09T01:59:52.913Z,29.20
2018-02-09T02:02:22.480Z,51.00
2018-02-09T02:04:52.041Z,53.47
2018-02-09T02:07:21.537Z,62.00
2018-02-09T02:09:51.069Z,24.23
2018-02-09T02:12:20.758Z,79.87
2018-02-09T02:14:50.406Z,60.60
2018-02-09T02:17:20.175Z,48.67
2018-02-09T02:19:56.345Z,129.70
2018-02-09T02:22:25.895Z,86.20
2018-02-09T02:24:55.575Z,81.70
2018-02-09T02:27:25.238Z,83.50
2018-02-09T02:29:54.761Z,13.20
2018-02-09T02:32:24.391Z,20.47
2018-02-09T02:34:56.057Z,9.63
2018-02-09T02:37:25.776Z,19.40
2018-02-09T02:39:55.267Z,28.53
2018-02-09T02:42:26.094Z,19.57
2018-02-09T02:44:55.817Z,16.00
2018-02-09T02:47:25.426Z,13.40
2018-02-09T02:49:55.023Z,35.77
2018-02-09T02:52:24.676Z,26.77
2018-02-09T02:54:54.298Z,28.43
2018-02-09T02:57:23.856Z,40.07
2018-02-09T02:59:53.375Z,24.20
2018-02-09T03:02:23.180Z,18.83
2018-02-09T03:04:52.653Z,18.17
2018-02-09T03:07:22.278Z,13.57
2018-02-09T03:09:51.970Z,14.70
2018-02-09T03:12:21.510Z,20.30
2018-02-09T03:14:51.139Z,13.93
2018-02-09T03:17:20.764Z,20.70
2018-02-09T03:19:56.742Z,20.37
2018-02-09T03:22:34.777Z,18.90
2018-02-09T03:25:10.718Z,19.77
2018-02-09T03:27:40.758Z,16.13
2018-02-09T03:30:10.594Z,14.63
2018-02-09T03:32:40.142Z,13.83
2018-02-09T03:35:09.742Z,18.57
2018-02-09T03:37:40.307Z,10.80
2018-02-09T03:40:09.878Z,12.83
2018-02-09T03:42:39.455Z,15.13
2018-02-09T03:45:08.992Z,11.80
2018-02-09T03:47:38.560Z,18.33
2018-02-09T03:50:09.077Z,8.77
2018-02-09T03:52:38.628Z,14.53
2018-02-09T03:55:08.195Z,14.77
2018-02-09T03:57:43.902Z,11.00
2018-02-09T04:00:13.490Z,12.73
2018-02-09T04:02:43.041Z,13.93
2018-02-09T04:05:13.336Z,15.07
2018-02-09T04:07:42.854Z,8.27
2018-02-09T04:10:14.033Z,10.37
2018-02-09T04:12:53.634Z,18.40
2018-02-09T04:15:23.189Z,18.80
2018-02-09T04:17:52.741Z,8.17
2018-02-09T04:20:30.003Z,11.43
2018-02-09T04:23:02.687Z,9.83
2018-02-09T04:25:32.251Z,10.70
2018-02-09T04:28:09.052Z,12.00
2018-02-09T04:30:38.597Z,9.33
2018-02-09T04:33:08.817Z,12.73
2018-02-09T04:35:40.062Z,8.47
2018-02-09T04:38:09.573Z,9.40
2018-02-09T04:40:39.126Z,7.10
2018-02-09T04:43:20.994Z,9.33
2018-02-09T04:45:50.543Z,13.33
2018-02-09T04:48:20.176Z,7.30
2018-02-09T04:50:52.672Z,6.73
2018-02-09T04:53:22.276Z,8.27
2018-02-09T04:56:01.692Z,6.30
2018-02-09T04:58:31.281Z,5.60
2018-02-09T05:01:00.862Z,7.53
2018-02-09T05:03:30.913Z,10.87
2018-02-09T05:06:00.463Z,5.77
2018-02-09T05:08:31.895Z,6.70
2018-02-09T05:11:01.467Z,5.77
2018-02-09T05:13:31.068Z,13.07
2018-02-09T05:16:01.255Z,8.60
2018-02-09T05:18:30.797Z,6.83
2018-02-09T05:21:00.375Z,14.17
2018-02-09T05:23:29.925Z,15.83
2018-02-09T05:25:59.892Z,5.63
2018-02-09T05:28:30.519Z,16.33
2018-02-09T05:31:09.889Z,11.53
2018-02-09T05:33:39.442Z,11.93
2018-02-09T05:36:09.020Z,21.03
2018-02-09T05:38:38.566Z,12.47
2018-02-09T05:41:08.140Z,8.20
2018-02-09T05:43:37.678Z,11.07
2018-02-09T05:46:07.194Z,11.87
2018-02-09T05:48:36.682Z,6.20
2018-02-09T05:51:06.232Z,9.90
2018-02-09T05:53:35.746Z,11.30
2018-02-09T05:56:05.282Z,10.73
2018-02-09T05:58:34.833Z,16.10
2018-02-09T06:01:04.388Z,7.10
2018-02-09T06:03:33.961Z,10.70
2018-02-09T06:06:03.561Z,10.93
2018-02-09T06:08:33.956Z,12.80
2018-02-09T06:11:03.520Z,8.10
2018-02-09T06:13:33.017Z,5.33
2018-02-09T06:16:02.539Z,8.03
2018-02-09T06:18:45.339Z,26.97
2018-02-09T06:21:14.889Z,6.30
2018-02-09T06:23:44.390Z,12.17
2018-02-09T06:26:14.026Z,9.10
2018-02-09T06:28:43.593Z,15.33
2018-02-09T06:31:13.689Z,8.50
2018-02-09T06:33:43.228Z,7.40
2018-02-09T06:36:12.758Z,9.17
2018-02-09T06:38:42.340Z,5.70
2018-02-09T06:41:12.054Z,6.30
2018-02-09T06:43:41.595Z,7.77
2018-02-09T06:46:11.218Z,6.00
2018-02-09T06:48:40.838Z,6.50
2018-02-09T06:51:10.327Z,7.37
2018-02-09T06:53:39.888Z,8.20
2018-02-09T06:56:09.406Z,6.00
2018-02-09T06:58:38.938Z,9.80
2018-02-09T07:01:14.594Z,8.63
2018-02-09T07:03:44.157Z,10.40
2018-02-09T07:06:13.710Z,7.27
2018-02-09T07:08:43.475Z,20.20
2018-02-09T07:11:13.165Z,6.33
2018-02-09T07:13:43.101Z,15.00
2018-02-09T07:16:12.676Z,7.23
2018-02-09T07:18:42.194Z,17.20
2018-02-09T07:21:11.732Z,16.73
2018-02-09T07:23:41.246Z,10.10
2018-02-09T07:26:10.802Z,15.97
2018-02-09T07:28:40.345Z,13.13
2018-02-09T07:31:09.921Z,15.17
2018-02-09T07:33:39.558Z,18.30
2018-02-09T07:36:09.090Z,14.27
2018-02-09T07:38:38.636Z,23.23
2018-02-09T07:41:08.161Z,21.10
2018-02-09T07:43:37.649Z,19.50
2018-02-09T07:46:07.191Z,21.30
2018-02-09T07:48:36.951Z,24.70
2018-02-09T07:51:06.526Z,18.53
2018-02-09T07:53:36.166Z,11.10
2018-02-09T07:56:05.825Z,26.27
2018-02-09T07:58:35.425Z,15.70
2018-02-09T08:01:04.998Z,18.73
2018-02-09T08:03:34.579Z,19.57
2018-02-09T08:06:04.108Z,17.60
2018-02-09T08:08:46.286Z,26.33
2018-02-09T08:11:15.837Z,15.10
2018-02-09T08:13:47.019Z,24.43
2018-02-09T08:16:17.250Z,24.63
2018-02-09T08:18:46.951Z,18.63
2018-02-09T08:21:16.434Z,16.80
2018-02-09T08:23:59.782Z,17.50
2018-02-09T08:26:29.333Z,17.53
2018-02-09T08:28:58.846Z,18.50
2018-02-09T08:31:28.320Z,15.63
2018-02-09T08:33:58.838Z,19.57
2018-02-09T08:36:29.734Z,18.20
2018-02-09T08:38:59.776Z,18.10
2018-02-09T08:41:29.297Z,16.50
2018-02-09T08:43:58.821Z,13.00
2018-02-09T08:46:29.221Z,35.57
2018-02-09T08:48:58.734Z,15.10
2018-02-09T08:51:28.269Z,12.40
2018-02-09T08:53:57.813Z,14.30
2018-02-09T08:56:27.420Z,13.93
2018-02-09T08:58:57.857Z,12.27
2018-02-09T09:01:27.416Z,14.17
2018-02-09T09:03:57.118Z,12.27
2018-02-09T09:06:39.495Z,10.33
2018-02-09T09:09:09.055Z,13.53
2018-02-09T09:11:38.833Z,12.23
2018-02-09T09:14:08.469Z,14.57
2018-02-09T09:16:37.986Z,18.80
2018-02-09T09:19:07.500Z,13.70
2018-02-09T09:21:37.011Z,15.03
2018-02-09T09:24:06.623Z,18.00
2018-02-09T09:26:36.145Z,20.70
2018-02-09T09:29:05.650Z,17.10
2018-02-09T09:31:35.218Z,20.70
2018-02-09T09:34:04.767Z,16.50
2018-02-09T09:36:34.269Z,23.73
2018-02-09T09:39:04.016Z,29.20
2018-02-09T09:41:33.573Z,17.53
2018-02-09T09:44:04.458Z,19.20
2018-02-09T09:46:33.988Z,19.50
2018-02-09T09:49:03.500Z,22.47
2018-02-09T09:51:33.158Z,18.93
2018-02-09T09:54:02.802Z,17.20
2018-02-09T09:56:32.356Z,16.60
2018-02-09T09:59:01.891Z,25.10
2018-02-09T10:01:31.649Z,15.63
2018-02-09T10:04:01.230Z,17.17
2018-02-09T10:06:30.786Z,15.70
2018-02-09T10:09:00.286Z,14.53
2018-02-09T10:11:29.810Z,14.63
2018-02-09T10:13:59.302Z,15.40
2018-02-09T10:16:28.900Z,13.87
2018-02-09T10:18:58.452Z,15.80
2018-02-09T10:21:29.617Z,18.13
2018-02-09T10:23:59.382Z,16.80
2018-02-09T10:26:34.981Z,14.70
2018-02-09T10:29:04.491Z,19.60
2018-02-09T10:31:34.262Z,15.00
2018-02-09T10:34:03.870Z,18.17
2018-02-09T10:36:33.383Z,14.60
2018-02-09T10:39:03.231Z,20.33
2018-02-09T10:41:32.737Z,20.33
2018-02-09T10:44:02.291Z,15.57
2018-02-09T10:46:33.786Z,16.30
2018-02-09T10:49:09.398Z,12.43
2018-02-09T10:51:38.905Z,15.67
2018-02-09T10:54:08.412Z,14.93
2018-02-09T10:56:37.943Z,14.17
2018-02-09T10:59:09.388Z,14.47
2018-02-09T11:01:38.963Z,13.40
2018-02-09T11:04:12.373Z,16.10
2018-02-09T11:06:41.881Z,17.20
2018-02-09T11:09:11.466Z,15.63
2018-02-09T11:11:41.036Z,14.00
2018-02-09T11:14:11.007Z,12.87
2018-02-09T11:16:40.510Z,12.87
2018-02-09T11:19:10.009Z,10.77
2018-02-09T11:21:39.534Z,10.40
2018-02-09T11:24:09.101Z,8.87
2018-02-09T11:26:38.662Z,9.80
2018-02-09T11:29:14.228Z,13.57
2018-02-09T11:31:43.752Z,10.90
2018-02-09T11:34:19.321Z,16.20
2018-02-09T11:36:48.804Z,15.00
2018-02-09T11:39:18.306Z,13.30
2018-02-09T11:41:47.871Z,13.20
2018-02-09T11:44:17.484Z,9.70
2018-02-09T11:46:47.093Z,13.67
2018-02-09T11:49:16.593Z,8.80
2018-02-09T11:51:59.370Z,12.23
2018-02-09T11:54:36.110Z,15.87
2018-02-09T11:57:05.840Z,19.97
2018-02-09T11:59:35.587Z,16.43
2018-02-09T12:02:21.601Z,15.63
2018-02-09T12:04:51.203Z,9.77
2018-02-09T12:07:20.835Z,15.33
2018-02-09T12:09:57.344Z,10.90
2018-02-09T12:12:38.943Z,9.73
2018-02-09T12:15:08.490Z,10.53
2018-02-09T12:17:38.106Z,11.50
2018-02-09T12:20:07.638Z,18.80
2018-02-09T12:22:40.551Z,9.73
2018-02-09T12:25:10.093Z,17.20
2018-02-09T12:27:39.575Z,15.30
2018-02-09T12:30:09.101Z,13.40
2018-02-09T12:32:38.604Z,12.70
2018-02-09T12:35:08.117Z,15.90
2018-02-09T12:37:37.662Z,14.73
2018-02-09T12:40:07.207Z,11.37
2018-02-09T12:42:36.827Z,12.90
2018-02-09T12:45:13.281Z,17.13
2018-02-09T12:47:42.788Z,13.23
2018-02-09T12:50:12.299Z,19.73
2018-02-09T12:52:49.510Z,12.50
2018-02-09T12:55:22.172Z,33.70
2018-02-09T12:57:51.671Z,11.60
2018-02-09T13:00:28.303Z,14.87
2018-02-09T13:02:57.806Z,11.17
2018-02-09T13:05:27.303Z,13.13
2018-02-09T13:07:56.862Z,20.43
2018-02-09T13:10:26.393Z,11.20
2018-02-09T13:13:01.739Z,10.00
2018-02-09T13:15:31.297Z,9.73
2018-02-09T13:18:06.793Z,11.40
2018-02-09T13:20:36.321Z,10.23
2018-02-09T13:23:11.515Z,11.43
2018-02-09T13:25:41.029Z,9.47
2018-02-09T13:28:17.014Z,11.30
2018-02-09T13:30:52.809Z,13.70
2018-02-09T13:33:27.998Z,9.07
2018-02-09T13:35:57.533Z,9.87
2018-02-09T13:38:27.142Z,11.10
2018-02-09T13:40:56.719Z,12.80
2018-02-09T13:43:26.239Z,12.73
2018-02-09T13:46:10.054Z,11.50
2018-02-09T13:48:39.614Z,11.00
2018-02-09T13:51:09.156Z,11.70
2018-02-09T13:53:38.654Z,11.33
2018-02-09T13:56:08.152Z,14.70
2018-02-09T13:58:50.314Z,11.50
2018-02-09T14:01:19.807Z,10.93
2018-02-09T14:03:49.343Z,10.13
2018-02-09T14:06:18.816Z,14.80
2018-02-09T14:08:48.322Z,9.83
2018-02-09T14:11:17.808Z,11.10
2018-02-09T14:13:47.766Z,11.10
2018-02-09T14:16:17.296Z,13.10
2018-02-09T14:18:46.841Z,9.67
2018-02-09T14:21:16.379Z,11.60
2018-02-09T14:23:45.965Z,14.53
2018-02-09T14:26:15.471Z,10.80
2018-02-09T14:28:52.322Z,6.53
2018-02-09T14:31:21.898Z,9.63
2018-02-09T14:33:51.449Z,8.23
2018-02-09T14:36:21.010Z,8.07
2018-02-09T14:38:50.547Z,12.40
2018-02-09T14:41:20.090Z,7.40
2018-02-09T14:43:49.638Z,19.33
2018-02-09T14:46:27.710Z,11.60
2018-02-09T14:48:57.196Z,7.00
2018-02-09T14:51:26.763Z,6.63
2018-02-09T14:53:57.082Z,6.20
2018-02-09T14:56:26.616Z,6.97
2018-02-09T14:58:56.114Z,9.77
2018-02-09T15:01:25.611Z,9.33
2018-02-09T15:03:55.074Z,7.80
2018-02-09T15:06:24.612Z,8.13
2018-02-09T15:08:54.170Z,7.77
2018-02-09T15:11:32.257Z,9.47
2018-02-09T15:14:02.156Z,10.63
2018-02-09T15:16:31.706Z,9.27
2018-02-09T15:19:01.206Z,7.53
2018-02-09T15:21:30.734Z,7.43
2018-02-09T15:24:00.252Z,8.20
2018-02-09T15:26:29.812Z,9.30
2018-02-09T15:29:00.090Z,7.63
2018-02-09T15:31:29.621Z,9.83
2018-02-09T15:33:59.185Z,6.60
2018-02-09T15:36:28.807Z,10.70
2018-02-09T15:38:58.295Z,9.47
2018-02-09T15:41:27.849Z,9.83
2018-02-09T15:43:57.333Z,13.70
2018-02-09T15:46:27.322Z,22.73
2018-02-09T15:48:56.870Z,14.40
2018-02-09T15:51:26.399Z,8.60
2018-02-09T15:53:55.981Z,12.00
2018-02-09T15:56:25.564Z,19.20
2018-02-09T15:58:55.129Z,9.57
2018-02-09T16:01:24.993Z,7.73
2018-02-09T16:03:54.486Z,9.07
2018-02-09T16:06:25.614Z,11.40
2018-02-09T16:08:55.115Z,12.03
2018-02-09T16:11:26.386Z,7.00
2018-02-09T16:13:55.910Z,4.23
2018-02-09T16:16:25.600Z,7.47
2018-02-09T16:18:55.209Z,8.63
2018-02-09T16:21:37.945Z,4.93
2018-02-09T16:24:07.481Z,8.47
2018-02-09T16:26:51.001Z,7.73
2018-02-09T16:29:20.522Z,9.60
2018-02-09T16:31:56.713Z,9.20
2018-02-09T16:34:26.228Z,7.37
2018-02-09T16:36:55.715Z,6.43
2018-02-09T16:39:25.255Z,3.13
2018-02-09T16:41:54.790Z,2.87
2018-02-09T16:44:24.270Z,2.60
2018-02-09T16:46:53.782Z,3.13
2018-02-09T16:49:23.293Z,7.50
2018-02-09T16:51:53.338Z,1.97
2018-02-09T16:54:22.809Z,8.80
2018-02-09T16:56:58.345Z,7.50
2018-02-09T16:59:27.842Z,2.60
2018-02-09T17:02:04.696Z,2.97
2018-02-09T17:04:34.246Z,2.00
2018-02-09T17:07:03.726Z,5.47
2018-02-09T17:09:33.218Z,2.80
2018-02-09T17:12:02.757Z,2.30
2018-02-09T17:14:32.305Z,2.40
2018-02-09T17:17:01.803Z,7.13
2018-02-09T17:19:31.542Z,2.70
2018-02-09T17:22:01.164Z,5.00
2018-02-09T17:24:30.800Z,3.00
2018-02-09T17:27:00.374Z,2.40
2018-02-09T17:29:29.939Z,6.53
2018-02-09T17:31:59.494Z,7.10
2018-02-09T17:34:29.218Z,3.00
2018-02-09T17:36:58.760Z,6.40
2018-02-09T17:39:28.321Z,2.33
2018-02-09T17:41:58.030Z,3.97
2018-02-09T17:44:27.701Z,3.07
2018-02-09T17:46:57.187Z,6.50
2018-02-09T17:49:34.179Z,8.20
2018-02-09T17:52:03.748Z,23.37
2018-02-09T17:54:33.230Z,10.33
2018-02-09T17:57:02.765Z,3.47
2018-02-09T17:59:44.871Z,4.27
2018-02-09T18:02:27.359Z,4.90
2018-02-09T18:04:57.041Z,2.93
2018-02-09T18:07:26.689Z,5.57
2018-02-09T18:09:57.934Z,9.63
2018-02-09T18:12:27.521Z,12.10
2018-02-09T18:15:09.870Z,5.87
2018-02-09T18:17:39.464Z,8.10
2018-02-09T18:20:08.992Z,5.83
2018-02-09T18:22:38.749Z,8.23
2018-02-09T18:25:09.616Z,3.20
2018-02-09T18:27:44.333Z,8.63
2018-02-09T18:30:13.887Z,2.87
2018-02-09T18:32:43.408Z,2.70
2018-02-09T18:35:12.969Z,12.17
2018-02-09T18:37:49.453Z,7.13
2018-02-09T18:40:19.007Z,5.90
2018-02-09T18:42:48.546Z,6.60
2018-02-09T18:45:18.139Z,11.67
2018-02-09T18:47:47.898Z,3.90
2018-02-09T18:50:17.393Z,4.03
2018-02-09T18:52:46.886Z,7.97
2018-02-09T18:55:16.470Z,6.10
2018-02-09T18:57:47.714Z,5.97
2018-02-09T19:00:17.290Z,14.10
2018-02-09T19:02:47.971Z,5.93
2018-02-09T19:05:18.640Z,8.87
2018-02-09T19:07:48.241Z,10.50
2018-02-09T19:10:17.750Z,6.80
2018-02-09T19:12:48.470Z,6.23
2018-02-09T19:15:17.997Z,7.07
2018-02-09T19:17:47.537Z,7.13
2018-02-09T19:20:17.028Z,8.73
2018-02-09T19:22:46.599Z,10.03
2018-02-09T19:25:16.153Z,10.50
2018-02-09T19:27:45.762Z,6.23
2018-02-09T19:30:15.337Z,7.50
2018-02-09T19:32:44.917Z,7.00
2018-02-09T19:35:16.579Z,9.17
2018-02-09T19:37:46.099Z,7.00
2018-02-09T19:40:15.771Z,8.13
2018-02-09T19:42:45.311Z,5.67
2018-02-09T19:45:14.850Z,6.30
2018-02-09T19:47:44.399Z,6.57
2018-02-09T19:50:13.898Z,10.43
2018-02-09T19:52:43.414Z,6.47
2018-02-09T19:55:13.003Z,5.53
2018-02-09T19:57:42.526Z,13.67
2018-02-09T20:00:12.062Z,8.03
2018-02-09T20:02:46.414Z,8.77
2018-02-09T20:05:15.971Z,8.17
2018-02-09T20:07:45.514Z,7.93
2018-02-09T20:10:15.018Z,8.67
2018-02-09T20:12:45.770Z,11.43
2018-02-09T20:15:15.346Z,9.80
2018-02-09T20:17:50.905Z,7.23
2018-02-09T20:20:20.447Z,10.87
2018-02-09T20:22:49.970Z,8.93
2018-02-09T20:25:19.682Z,8.40
2018-02-09T20:27:49.221Z,7.30
2018-02-09T20:30:18.726Z,10.77
2018-02-09T20:32:49.232Z,6.00
2018-02-09T20:35:18.731Z,9.47
2018-02-09T20:37:48.490Z,8.63
2018-02-09T20:40:18.262Z,8.60
2018-02-09T20:42:57.632Z,11.23
2018-02-09T20:45:27.227Z,11.37
2018-02-09T20:47:58.258Z,22.77
2018-02-09T20:50:29.886Z,15.03
2018-02-09T20:52:59.657Z,46.13
2018-02-09T20:55:30.302Z,48.47
2018-02-09T20:57:59.850Z,30.33
2018-02-09T21:00:29.381Z,30.17
2018-02-09T21:02:59.098Z,27.33
2018-02-09T21:05:28.734Z,21.40
2018-02-09T21:07:58.290Z,24.23
2018-02-09T21:10:27.803Z,16.23
2018-02-09T21:12:57.570Z,16.03
2018-02-09T21:15:40.537Z,8.87
2018-02-09T21:18:31.000Z,12.80
2018-02-09T21:21:00.480Z,8.10
2018-02-09T21:23:30.077Z,8.37
2018-02-09T21:25:59.643Z,9.87
2018-02-09T21:28:29.174Z,8.53
2018-02-09T21:30:58.669Z,9.83
2018-02-09T21:33:28.212Z,7.10
2018-02-09T21:35:57.835Z,7.87
2018-02-09T21:38:27.437Z,13.10
2018-02-09T21:40:56.971Z,8.40
2018-02-09T21:43:26.647Z,7.30
2018-02-09T21:46:10.760Z,14.57
2018-02-09T21:48:41.808Z,10.60
2018-02-09T21:51:11.589Z,6.97
2018-02-09T21:53:47.757Z,7.43
2018-02-09T21:56:18.425Z,6.20
2018-02-09T21:58:48.374Z,6.37
2018-02-09T22:01:17.983Z,10.33
2018-02-09T22:03:47.808Z,8.00
2018-02-09T22:06:17.370Z,8.80
2018-02-09T22:08:47.203Z,8.63
2018-02-09T22:11:17.100Z,7.40
2018-02-09T22:13:46.899Z,8.93
2018-02-09T22:16:16.762Z,5.90
2018-02-09T22:18:46.369Z,10.07
2018-02-09T22:21:16.178Z,10.97
2018-02-09T22:23:45.975Z,8.40
2018-02-09T22:26:15.529Z,7.23
2018-02-09T22:28:56.055Z,12.37
2018-02-09T22:31:25.874Z,6.87
2018-02-09T22:33:55.673Z,7.00
2018-02-09T22:36:26.240Z,5.83
2018-02-09T22:39:01.957Z,9.00
2018-02-09T22:41:31.881Z,8.10
2018-02-09T22:44:01.453Z,11.90
2018-02-09T22:46:31.437Z,6.77
2018-02-09T22:49:00.951Z,9.37
2018-02-09T22:51:30.508Z,8.67
2018-02-09T22:54:00.272Z,7.50
2018-02-09T22:56:29.803Z,9.47
2018-02-09T22:58:59.366Z,7.23
2018-02-09T23:01:28.976Z,7.50
2018-02-09T23:03:58.547Z,7.90
2018-02-09T23:06:34.865Z,7.30
2018-02-09T23:09:05.959Z,9.43
2018-02-09T23:11:35.490Z,10.20
2018-02-09T23:14:05.014Z,11.07
2018-02-09T23:16:34.872Z,10.50
2018-02-09T23:19:04.452Z,13.50
2018-02-09T23:21:34.630Z,9.30
2018-02-09T23:24:04.443Z,10.83
2018-02-09T23:26:33.999Z,9.03
2018-02-09T23:29:03.538Z,12.13
2018-02-09T23:31:46.316Z,12.30
2018-02-09T23:34:22.949Z,7.67
2018-02-09T23:36:52.518Z,9.03
2018-02-09T23:39:23.141Z,13.40
2018-02-09T23:41:52.716Z,18.83
2018-02-09T23:44:22.266Z,10.43
2018-02-09T23:46:51.814Z,11.20
2018-02-09T23:49:29.354Z,10.80
2018-02-09T23:52:05.042Z,9.43
2018-02-09T23:54:34.573Z,9.00
2018-02-09T23:57:04.365Z,9.20
2018-02-09T23:59:33.925Z,10.50
